sensor_id;sensor_type;location;lat;lon;timestamp;pressure;altitude;pressure_sealevel;temperature;humidity
17855;BME280;9053;53.358;6.382;2022-09-09T00:01:53;100652.75;;;17.33;100.00
17855;BME280;9053;53.358;6.382;2022-09-09T00:04:29;100650.09;;;17.33;100.00
17855;BME280;9053;53.358;6.382;2022-09-09T00:07:03;100644.78;;;17.31;100.00
17855;BME280;9053;53.358;6.382;2022-09-09T00:09:39;100647.44;;;17.29;100.00
17855;BME280;9053;53.358;6.382;2022-09-09T00:12:14;100645.66;;;17.28;100.00
17855;BME280;9053;53.358;6.382;2022-09-09T00:14:51;100647.44;;;17.26;100.00
17855;BME280;9053;53.358;6.382;2022-09-09T00:17:33;100645.66;;;17.24;100.00
17855;BME280;9053;53.358;6.382;2022-09-09T00:20:12;100644.75;;;17.22;100.00
17855;BME280;9053;53.358;6.382;2022-09-09T00:22:47;100649.16;;;17.18;100.00
17855;BME280;9053;53.358;6.382;2022-09-09T00:25:24;100642.09;;;17.17;100.00
17855;BME280;9053;53.358;6.382;2022-09-09T00:27:57;100638.53;;;17.15;100.00
17855;BME280;9053;53.358;6.382;2022-09-09T00:30:31;100638.53;;;17.12;100.00
17855;BME280;9053;53.358;6.382;2022-09-09T00:33:11;100642.06;;;17.09;100.00
17855;BME280;9053;53.358;6.382;2022-09-09T00:35:45;100636.72;;;17.08;100.00
17855;BME280;9053;53.358;6.382;2022-09-09T00:38:20;100635.84;;;17.06;100.00
17855;BME280;9053;53.358;6.382;2022-09-09T00:40:56;100641.13;;;17.03;100.00
17855;BME280;9053;53.358;6.382;2022-09-09T00:43:29;100637.59;;;17.02;100.00
17855;BME280;9053;53.358;6.382;2022-09-09T00:46:18;100619.00;;;16.99;100.00
17855;BME280;9053;53.358;6.382;2022-09-09T00:49:00;100620.72;;;16.96;100.00
17855;BME280;9053;53.358;6.382;2022-09-09T00:51:45;100626.91;;;16.93;100.00
17855;BME280;9053;53.358;6.382;2022-09-09T00:54:29;100613.63;;;16.90;100.00
17855;BME280;9053;53.358;6.382;2022-09-09T00:57:11;100614.53;;;16.86;100.00
17855;BME280;9053;53.358;6.382;2022-09-09T00:59:47;100620.72;;;16.83;100.00
17855;BME280;9053;53.358;6.382;2022-09-09T01:02:26;100626.03;;;16.83;100.00
17855;BME280;9053;53.358;6.382;2022-09-09T01:05:02;100621.59;;;16.81;100.00
17855;BME280;9053;53.358;6.382;2022-09-09T01:07:37;100621.56;;;16.79;100.00
17855;BME280;9053;53.358;6.382;2022-09-09T01:10:11;100615.31;;;16.77;100.00
17855;BME280;9053;53.358;6.382;2022-09-09T01:12:47;100617.97;;;16.74;100.00
17855;BME280;9053;53.358;6.382;2022-09-09T01:15:21;100617.94;;;16.73;100.00
17855;BME280;9053;53.358;6.382;2022-09-09T01:17:58;100613.53;;;16.72;100.00
17855;BME280;9053;53.358;6.382;2022-09-09T01:20:33;100615.28;;;16.70;100.00
17855;BME280;9053;53.358;6.382;2022-09-09T01:23:19;100611.72;;;16.67;100.00
17855;BME280;9053;53.358;6.382;2022-09-09T01:26:23;100616.13;;;16.65;100.00
17855;BME280;9053;53.358;6.382;2022-09-09T01:28:54;100613.47;;;16.64;100.00
17855;BME280;9053;53.358;6.382;2022-09-09T01:31:28;100617.91;;;16.63;100.00
17855;BME280;9053;53.358;6.382;2022-09-09T01:33:59;100617.91;;;16.62;100.00
17855;BME280;9053;53.358;6.382;2022-09-09T01:36:32;100612.56;;;16.60;100.00
17855;BME280;9053;53.358;6.382;2022-09-09T01:39:04;100615.22;;;16.59;100.00
17855;BME280;9053;53.358;6.382;2022-09-09T01:41:37;100614.34;;;16.58;100.00
17855;BME280;9053;53.358;6.382;2022-09-09T01:44:08;100605.47;;;16.56;100.00
17855;BME280;9053;53.358;6.382;2022-09-09T01:46:38;100609.91;;;16.56;100.00
17855;BME280;9053;53.358;6.382;2022-09-09T01:49:08;100611.66;;;16.54;100.00
17855;BME280;9053;53.358;6.382;2022-09-09T01:51:41;100615.19;;;16.53;100.00
17855;BME280;9053;53.358;6.382;2022-09-09T01:54:12;100608.09;;;16.52;100.00
17855;BME280;9053;53.358;6.382;2022-09-09T01:56:53;100607.22;;;16.53;100.00
17855;BME280;9053;53.358;6.382;2022-09-09T01:59:50;100604.56;;;16.51;100.00
17855;BME280;9053;53.358;6.382;2022-09-09T02:02:26;100601.03;;;16.51;100.00
17855;BME280;9053;53.358;6.382;2022-09-09T02:05:07;100595.72;;;16.51;100.00
17855;BME280;9053;53.358;6.382;2022-09-09T02:07:40;100599.25;;;16.50;100.00
17855;BME280;9053;53.358;6.382;2022-09-09T02:10:16;100605.44;;;16.50;100.00
17855;BME280;9053;53.358;6.382;2022-09-09T02:12:53;100604.53;;;16.50;100.00
17855;BME280;9053;53.358;6.382;2022-09-09T02:15:29;100607.22;;;16.48;100.00
17855;BME280;9053;53.358;6.382;2022-09-09T02:18:04;100608.09;;;16.46;100.00
17855;BME280;9053;53.358;6.382;2022-09-09T02:20:37;100607.19;;;16.43;100.00
17855;BME280;9053;53.358;6.382;2022-09-09T02:23:08;100599.22;;;16.43;100.00
17855;BME280;9053;53.358;6.382;2022-09-09T02:25:41;100601.88;;;16.43;100.00
17855;BME280;9053;53.358;6.382;2022-09-09T02:28:15;100599.19;;;16.42;100.00
17855;BME280;9053;53.358;6.382;2022-09-09T02:30:49;100600.06;;;16.39;100.00
17855;BME280;9053;53.358;6.382;2022-09-09T02:33:24;100610.69;;;16.39;100.00
17855;BME280;9053;53.358;6.382;2022-09-09T02:35:55;100598.28;;;16.37;100.00
17855;BME280;9053;53.358;6.382;2022-09-09T02:38:35;100599.16;;;16.36;100.00
17855;BME280;9053;53.358;6.382;2022-09-09T02:41:06;100596.50;;;16.34;100.00
17855;BME280;9053;53.358;6.382;2022-09-09T02:43:38;100605.34;;;16.36;100.00
17855;BME280;9053;53.358;6.382;2022-09-09T02:46:19;100606.22;;;16.35;100.00
17855;BME280;9053;53.358;6.382;2022-09-09T02:48:59;100602.72;;;16.36;100.00
17855;BME280;9053;53.358;6.382;2022-09-09T02:51:35;100597.41;;;16.36;100.00
17855;BME280;9053;53.358;6.382;2022-09-09T02:54:15;100600.06;;;16.38;100.00
17855;BME280;9053;53.358;6.382;2022-09-09T02:56:50;100606.25;;;16.38;100.00
17855;BME280;9053;53.358;6.382;2022-09-09T02:59:25;100608.91;;;16.38;100.00
17855;BME280;9053;53.358;6.382;2022-09-09T03:01:55;100609.78;;;16.37;100.00
17855;BME280;9053;53.358;6.382;2022-09-09T03:04:25;100608.91;;;16.37;100.00
17855;BME280;9053;53.358;6.382;2022-09-09T03:06:55;100624.81;;;16.37;100.00
17855;BME280;9053;53.358;6.382;2022-09-09T03:09:25;100620.38;;;16.34;100.00
17855;BME280;9053;53.358;6.382;2022-09-09T03:11:55;100609.75;;;16.33;100.00
17855;BME280;9053;53.358;6.382;2022-09-09T03:14:28;100607.09;;;16.33;100.00
17855;BME280;9053;53.358;6.382;2022-09-09T03:16:57;100610.63;;;16.32;100.00
17855;BME280;9053;53.358;6.382;2022-09-09T03:19:29;100608.88;;;16.31;100.00
17855;BME280;9053;53.358;6.382;2022-09-09T03:21:59;100607.97;;;16.32;100.00
17855;BME280;9053;53.358;6.382;2022-09-09T03:24:31;100607.97;;;16.32;100.00
17855;BME280;9053;53.358;6.382;2022-09-09T03:27:00;100600.03;;;16.33;100.00
17855;BME280;9053;53.358;6.382;2022-09-09T03:29:33;100601.81;;;16.34;100.00
17855;BME280;9053;53.358;6.382;2022-09-09T03:32:02;100600.03;;;16.33;100.00
17855;BME280;9053;53.358;6.382;2022-09-09T03:34:32;100609.78;;;16.36;100.00
17855;BME280;9053;53.358;6.382;2022-09-09T03:37:03;100605.34;;;16.36;100.00
17855;BME280;9053;53.358;6.382;2022-09-09T03:39:33;100606.25;;;16.37;100.00
17855;BME280;9053;53.358;6.382;2022-09-09T03:42:03;100604.47;;;16.37;100.00
17855;BME280;9053;53.358;6.382;2022-09-09T03:44:36;100598.31;;;16.38;100.00
17855;BME280;9053;53.358;6.382;2022-09-09T03:47:09;100593.00;;;16.38;100.00
17855;BME280;9053;53.358;6.382;2022-09-09T03:49:39;100608.03;;;16.39;100.00
17855;BME280;9053;53.358;6.382;2022-09-09T03:52:09;100607.16;;;16.40;100.00
17855;BME280;9053;53.358;6.382;2022-09-09T03:54:39;100603.59;;;16.38;100.00
17855;BME280;9053;53.358;6.382;2022-09-09T03:57:09;100603.59;;;16.38;100.00
17855;BME280;9053;53.358;6.382;2022-09-09T03:59:43;100597.41;;;16.39;100.00
17855;BME280;9053;53.358;6.382;2022-09-09T04:02:13;100600.94;;;16.40;100.00
17855;BME280;9053;53.358;6.382;2022-09-09T04:04:42;100601.84;;;16.39;100.00
17855;BME280;9053;53.358;6.382;2022-09-09T04:07:12;100607.16;;;16.39;100.00
17855;BME280;9053;53.358;6.382;2022-09-09T04:09:42;100613.34;;;16.39;100.00
17855;BME280;9053;53.358;6.382;2022-09-09T04:12:12;100603.59;;;16.38;100.00
17855;BME280;9053;53.358;6.382;2022-09-09T04:14:45;100607.13;;;16.37;100.00
17855;BME280;9053;53.358;6.382;2022-09-09T04:17:15;100601.81;;;16.36;100.00
17855;BME280;9053;53.358;6.382;2022-09-09T04:19:45;100601.81;;;16.34;100.00
17855;BME280;9053;53.358;6.382;2022-09-09T04:22:15;100615.97;;;16.33;100.00
17855;BME280;9053;53.358;6.382;2022-09-09T04:24:45;100608.84;;;16.32;100.00
17855;BME280;9053;53.358;6.382;2022-09-09T04:27:14;100612.41;;;16.33;100.00
17855;BME280;9053;53.358;6.382;2022-09-09T04:29:47;100602.66;;;16.30;100.00
17855;BME280;9053;53.358;6.382;2022-09-09T04:32:16;100605.31;;;16.30;100.00
17855;BME280;9053;53.358;6.382;2022-09-09T04:34:46;100600.00;;;16.32;100.00
17855;BME280;9053;53.358;6.382;2022-09-09T04:37:16;100605.31;;;16.32;100.00
17855;BME280;9053;53.358;6.382;2022-09-09T04:39:46;100595.59;;;16.32;100.00
17855;BME280;9053;53.358;6.382;2022-09-09T04:42:16;100602.69;;;16.33;100.00
17855;BME280;9053;53.358;6.382;2022-09-09T04:44:48;100599.13;;;16.33;100.00
17855;BME280;9053;53.358;6.382;2022-09-09T04:47:18;100600.00;;;16.32;100.00
17855;BME280;9053;53.358;6.382;2022-09-09T04:49:48;100600.91;;;16.32;100.00
17855;BME280;9053;53.358;6.382;2022-09-09T04:52:18;100600.91;;;16.32;100.00
17855;BME280;9053;53.358;6.382;2022-09-09T04:54:48;100588.50;;;16.33;100.00
17855;BME280;9053;53.358;6.382;2022-09-09T04:57:18;100598.28;;;16.34;100.00
17855;BME280;9053;53.358;6.382;2022-09-09T04:59:51;100590.28;;;16.35;100.00
17855;BME280;9053;53.358;6.382;2022-09-09T05:02:21;100600.06;;;16.36;100.00
17855;BME280;9053;53.358;6.382;2022-09-09T05:04:56;100601.81;;;16.37;100.00
17855;BME280;9053;53.358;6.382;2022-09-09T05:07:26;100597.41;;;16.38;100.00
17855;BME280;9053;53.358;6.382;2022-09-09T05:09:57;100600.09;;;16.41;100.00
17855;BME280;9053;53.358;6.382;2022-09-09T05:12:28;100602.72;;;16.42;100.00
17855;BME280;9053;53.358;6.382;2022-09-09T05:15:00;100604.53;;;16.43;100.00
17855;BME280;9053;53.358;6.382;2022-09-09T05:17:30;100606.28;;;16.44;100.00
17855;BME280;9053;53.358;6.382;2022-09-09T05:20:01;100606.31;;;16.46;100.00
17855;BME280;9053;53.358;6.382;2022-09-09T05:22:36;100614.25;;;16.48;100.00
17855;BME280;9053;53.358;6.382;2022-09-09T05:25:08;100613.38;;;16.47;100.00
17855;BME280;9053;53.358;6.382;2022-09-09T05:27:37;100609.84;;;16.47;100.00
17855;BME280;9053;53.358;6.382;2022-09-09T05:30:11;100616.91;;;16.48;100.00
17855;BME280;9053;53.358;6.382;2022-09-09T05:32:41;100616.03;;;16.46;100.00
17855;BME280;9053;53.358;6.382;2022-09-09T05:35:11;100614.28;;;16.46;100.00
17855;BME280;9053;53.358;6.382;2022-09-09T05:37:40;100608.94;;;16.48;100.00
17855;BME280;9053;53.358;6.382;2022-09-09T05:40:10;100611.59;;;16.48;100.00
17855;BME280;9053;53.358;6.382;2022-09-09T05:42:40;100610.75;;;16.49;100.00
17855;BME280;9053;53.358;6.382;2022-09-09T05:45:12;100613.41;;;16.49;100.00
17855;BME280;9053;53.358;6.382;2022-09-09T05:47:42;100609.84;;;16.47;100.00
17855;BME280;9053;53.358;6.382;2022-09-09T05:50:12;100618.69;;;16.47;100.00
17855;BME280;9053;53.358;6.382;2022-09-09T05:52:42;100617.81;;;16.48;100.00
17855;BME280;9053;53.358;6.382;2022-09-09T05:55:12;100619.59;;;16.49;100.00
17855;BME280;9053;53.358;6.382;2022-09-09T05:57:48;100620.50;;;16.51;100.00
17855;BME280;9053;53.358;6.382;2022-09-09T06:00:21;100624.91;;;16.52;100.00
17855;BME280;9053;53.358;6.382;2022-09-09T06:02:51;100624.03;;;16.55;100.00
17855;BME280;9053;53.358;6.382;2022-09-09T06:05:21;100615.22;;;16.56;100.00
17855;BME280;9053;53.358;6.382;2022-09-09T06:07:55;100617.84;;;16.57;100.00
17855;BME280;9053;53.358;6.382;2022-09-09T06:10:25;100620.50;;;16.57;100.00
17855;BME280;9053;53.358;6.382;2022-09-09T06:12:54;100619.66;;;16.58;100.00
17855;BME280;9053;53.358;6.382;2022-09-09T06:15:27;100625.84;;;16.60;100.00
17855;BME280;9053;53.358;6.382;2022-09-09T06:17:57;100628.53;;;16.63;100.00
17855;BME280;9053;53.358;6.382;2022-09-09T06:20:27;100634.72;;;16.65;100.00
17855;BME280;9053;53.358;6.382;2022-09-09T06:22:57;100631.19;;;16.68;100.00
17855;BME280;9053;53.358;6.382;2022-09-09T06:25:27;100637.41;;;16.72;100.00
17855;BME280;9053;53.358;6.382;2022-09-09T06:27:57;100633.88;;;16.73;100.00
17855;BME280;9053;53.358;6.382;2022-09-09T06:30:29;100633.00;;;16.74;100.00
17855;BME280;9053;53.358;6.382;2022-09-09T06:32:59;100633.91;;;16.76;100.00
17855;BME280;9053;53.358;6.382;2022-09-09T06:35:29;100623.34;;;16.79;100.00
17855;BME280;9053;53.358;6.382;2022-09-09T06:37:58;100632.19;;;16.82;100.00
17855;BME280;9053;53.358;6.382;2022-09-09T06:40:28;100631.31;;;16.83;100.00
17855;BME280;9053;53.358;6.382;2022-09-09T06:42:59;100629.53;;;16.85;100.00
17855;BME280;9053;53.358;6.382;2022-09-09T06:45:32;100631.31;;;16.88;100.00
17855;BME280;9053;53.358;6.382;2022-09-09T06:48:03;100629.59;;;16.92;100.00
17855;BME280;9053;53.358;6.382;2022-09-09T06:50:33;100631.38;;;16.94;100.00
17855;BME280;9053;53.358;6.382;2022-09-09T06:53:02;100619.84;;;16.95;100.00
17855;BME280;9053;53.358;6.382;2022-09-09T06:55:32;100623.41;;;16.97;100.00
17855;BME280;9053;53.358;6.382;2022-09-09T06:58:02;100626.97;;;16.99;100.00
17855;BME280;9053;53.358;6.382;2022-09-09T07:00:34;100619.91;;;17.01;100.00
17855;BME280;9053;53.358;6.382;2022-09-09T07:03:05;100625.19;;;17.03;100.00
17855;BME280;9053;53.358;6.382;2022-09-09T07:05:35;100632.31;;;17.04;100.00
17855;BME280;9053;53.358;6.382;2022-09-09T07:08:04;100638.53;;;17.09;100.00
17855;BME280;9053;53.358;6.382;2022-09-09T07:10:35;100627.00;;;17.10;100.00
17855;BME280;9053;53.358;6.382;2022-09-09T07:13:05;100634.09;;;17.14;100.00
17855;BME280;9053;53.358;6.382;2022-09-09T07:15:37;100630.59;;;17.21;100.00
17855;BME280;9053;53.358;6.382;2022-09-09T07:18:07;100626.16;;;17.31;100.00
17855;BME280;9053;53.358;6.382;2022-09-09T07:20:37;100622.66;;;17.40;100.00
17855;BME280;9053;53.358;6.382;2022-09-09T07:23:06;100627.13;;;17.47;100.00
17855;BME280;9053;53.358;6.382;2022-09-09T07:25:36;100633.31;;;17.53;100.00
17855;BME280;9053;53.358;6.382;2022-09-09T07:28:06;100629.81;;;17.59;100.00
17855;BME280;9053;53.358;6.382;2022-09-09T07:30:38;100635.13;;;17.62;100.00
17855;BME280;9053;53.358;6.382;2022-09-09T07:33:09;100631.56;;;17.62;100.00
17855;BME280;9053;53.358;6.382;2022-09-09T07:35:39;100630.69;;;17.63;100.00
17855;BME280;9053;53.358;6.382;2022-09-09T07:38:09;100633.34;;;17.64;100.00
17855;BME280;9053;53.358;6.382;2022-09-09T07:40:39;100632.44;;;17.68;100.00
17855;BME280;9053;53.358;6.382;2022-09-09T07:43:09;100628.91;;;17.68;100.00
17855;BME280;9053;53.358;6.382;2022-09-09T07:45:45;100629.81;;;17.70;100.00
17855;BME280;9053;53.358;6.382;2022-09-09T07:48:16;100632.47;;;17.71;100.00
17855;BME280;9053;53.358;6.382;2022-09-09T07:50:46;100635.13;;;17.74;100.00
17855;BME280;9053;53.358;6.382;2022-09-09T07:53:16;100628.03;;;17.78;100.00
17855;BME280;9053;53.358;6.382;2022-09-09T07:55:46;100631.63;;;17.82;100.00
17855;BME280;9053;53.358;6.382;2022-09-09T07:58:16;100627.19;;;17.85;100.00
17855;BME280;9053;53.358;6.382;2022-09-09T08:00:48;100643.16;;;17.88;100.00
17855;BME280;9053;53.358;6.382;2022-09-09T08:03:20;100636.94;;;17.91;100.00
17855;BME280;9053;53.358;6.382;2022-09-09T08:05:50;100636.06;;;17.93;100.00
17855;BME280;9053;53.358;6.382;2022-09-09T08:08:20;100635.16;;;17.96;100.00
17855;BME280;9053;53.358;6.382;2022-09-09T08:10:50;100639.63;;;18.00;100.00
17855;BME280;9053;53.358;6.382;2022-09-09T08:13:19;100634.28;;;18.03;100.00
17855;BME280;9053;53.358;6.382;2022-09-09T08:15:52;100636.94;;;18.15;100.00
17855;BME280;9053;53.358;6.382;2022-09-09T08:18:22;100637.84;;;18.30;100.00
17855;BME280;9053;53.358;6.382;2022-09-09T08:20:52;100642.25;;;18.43;100.00
17855;BME280;9053;53.358;6.382;2022-09-09T08:23:21;100640.44;;;18.57;100.00
17855;BME280;9053;53.358;6.382;2022-09-09T08:25:52;100634.19;;;18.72;100.00
17855;BME280;9053;53.358;6.382;2022-09-09T08:28:22;100639.50;;;18.86;100.00
17855;BME280;9053;53.358;6.382;2022-09-09T08:30:54;100641.25;;;18.96;100.00
17855;BME280;9053;53.358;6.382;2022-09-09T08:33:24;100636.78;;;19.06;100.00
17855;BME280;9053;53.358;6.382;2022-09-09T08:35:54;100635.84;;;19.12;100.00
17855;BME280;9053;53.358;6.382;2022-09-09T08:38:24;100639.38;;;19.18;100.00
17855;BME280;9053;53.358;6.382;2022-09-09T08:41:04;100639.34;;;19.24;100.00
17855;BME280;9053;53.358;6.382;2022-09-09T08:43:36;100645.56;;;19.28;100.00
17855;BME280;9053;53.358;6.382;2022-09-09T08:46:13;100637.53;;;19.31;100.00
17855;BME280;9053;53.358;6.382;2022-09-09T08:48:51;100649.97;;;19.34;100.00
17855;BME280;9053;53.358;6.382;2022-09-09T08:51:26;100647.28;;;19.38;100.00
17855;BME280;9053;53.358;6.382;2022-09-09T08:53:58;100642.81;;;19.42;100.00
17855;BME280;9053;53.358;6.382;2022-09-09T08:56:32;100641.03;;;19.45;100.00
17855;BME280;9053;53.358;6.382;2022-09-09T08:59:03;100648.13;;;19.48;100.00
17855;BME280;9053;53.358;6.382;2022-09-09T09:01:47;100640.13;;;19.48;100.00
17855;BME280;9053;53.358;6.382;2022-09-09T09:04:31;100648.09;;;19.50;100.00
17855;BME280;9053;53.358;6.382;2022-09-09T09:07:13;100654.31;;;19.53;100.00
17855;BME280;9053;53.358;6.382;2022-09-09T09:09:54;100648.91;;;19.58;100.00
17855;BME280;9053;53.358;6.382;2022-09-09T09:12:29;100647.13;;;19.60;100.00
17855;BME280;9053;53.358;6.382;2022-09-09T09:14:59;100647.13;;;19.66;100.00
17855;BME280;9053;53.358;6.382;2022-09-09T09:17:32;100659.56;;;19.72;100.00
17855;BME280;9053;53.358;6.382;2022-09-09T09:20:11;100651.53;;;19.75;100.00
17855;BME280;9053;53.358;6.382;2022-09-09T09:22:47;100655.94;;;19.79;100.00
17855;BME280;9053;53.358;6.382;2022-09-09T09:25:19;100663.03;;;19.80;100.00
17855;BME280;9053;53.358;6.382;2022-09-09T09:27:54;100652.38;;;19.81;100.00
17855;BME280;9053;53.358;6.382;2022-09-09T09:30:31;100660.34;;;19.83;100.00
17855;BME280;9053;53.358;6.382;2022-09-09T09:33:15;100671.91;;;19.86;100.00
17855;BME280;9053;53.358;6.382;2022-09-09T09:35:48;100670.09;;;19.90;100.00
17855;BME280;9053;53.358;6.382;2022-09-09T09:38:19;100667.38;;;19.93;100.00
17855;BME280;9053;53.358;6.382;2022-09-09T09:41:09;100673.63;;;19.94;100.00
17855;BME280;9053;53.358;6.382;2022-09-09T09:43:40;100669.16;;;19.99;100.00
17855;BME280;9053;53.358;6.382;2022-09-09T09:46:19;100675.31;;;20.08;100.00
17855;BME280;9053;53.358;6.382;2022-09-09T09:48:59;100673.47;;;20.12;100.00
17855;BME280;9053;53.358;6.382;2022-09-09T09:51:31;100675.25;;;20.16;100.00
17855;BME280;9053;53.358;6.382;2022-09-09T09:54:22;100669.88;;;20.18;100.00
17855;BME280;9053;53.358;6.382;2022-09-09T09:56:55;100672.53;;;20.18;100.00
17855;BME280;9053;53.358;6.382;2022-09-09T09:59:33;100668.06;;;20.21;100.00
17855;BME280;9053;53.358;6.382;2022-09-09T10:02:14;100667.25;;;20.16;100.00
17855;BME280;9053;53.358;6.382;2022-09-09T10:04:47;100672.56;;;20.13;100.00
17855;BME280;9053;53.358;6.382;2022-09-09T10:07:18;100668.16;;;20.12;100.00
17855;BME280;9053;53.358;6.382;2022-09-09T10:09:53;100669.06;;;20.11;100.00
17855;BME280;9053;53.358;6.382;2022-09-09T10:12:30;100667.25;;;20.10;100.00
17855;BME280;9053;53.358;6.382;2022-09-09T10:15:18;100672.63;;;20.08;100.00
17855;BME280;9053;53.358;6.382;2022-09-09T10:17:58;100674.44;;;20.06;100.00
17855;BME280;9053;53.358;6.382;2022-09-09T10:20:40;100678.88;;;20.06;100.00
17855;BME280;9053;53.358;6.382;2022-09-09T10:23:22;100670.88;;;20.04;100.00
17855;BME280;9053;53.358;6.382;2022-09-09T10:26:08;100678.88;;;20.03;100.00
17855;BME280;9053;53.358;6.382;2022-09-09T10:29:01;100675.38;;;20.01;100.00
17855;BME280;9053;53.358;6.382;2022-09-09T10:31:41;100686.94;;;20.01;100.00
17855;BME280;9053;53.358;6.382;2022-09-09T10:34:39;100687.81;;;20.02;100.00
17855;BME280;9053;53.358;6.382;2022-09-09T10:37:30;100686.91;;;20.04;100.00
17855;BME280;9053;53.358;6.382;2022-09-09T10:40:18;100692.16;;;20.10;100.00
17855;BME280;9053;53.358;6.382;2022-09-09T10:42:51;100689.47;;;20.15;100.00
17855;BME280;9053;53.358;6.382;2022-09-09T10:45:29;100687.69;;;20.17;100.00
17855;BME280;9053;53.358;6.382;2022-09-09T10:48:16;100681.44;;;20.21;100.00
17855;BME280;9053;53.358;6.382;2022-09-09T10:50:56;100683.13;;;20.31;100.00
17855;BME280;9053;53.358;6.382;2022-09-09T10:53:48;100674.97;;;20.45;100.00
17855;BME280;9053;53.358;6.382;2022-09-09T10:56:21;100681.09;;;20.60;100.00
17855;BME280;9053;53.358;6.382;2022-09-09T10:58:56;100675.59;;;20.75;100.00
17855;BME280;9053;53.358;6.382;2022-09-09T11:01:31;100672.81;;;20.86;100.00
17855;BME280;9053;53.358;6.382;2022-09-09T11:04:13;100670.03;;;20.96;100.00
17855;BME280;9053;53.358;6.382;2022-09-09T11:06:49;100681.56;;;21.00;100.00
17855;BME280;9053;53.358;6.382;2022-09-09T11:09:27;100686.00;;;21.01;100.00
17855;BME280;9053;53.358;6.382;2022-09-09T11:12:00;100677.97;;;21.04;100.00
17855;BME280;9053;53.358;6.382;2022-09-09T11:14:34;100680.53;;;21.10;100.00
17855;BME280;9053;53.358;6.382;2022-09-09T11:17:10;100675.94;;;21.22;100.00
17855;BME280;9053;53.358;6.382;2022-09-09T11:19:42;100679.41;;;21.30;100.00
17855;BME280;9053;53.358;6.382;2022-09-09T11:22:22;100680.25;;;21.33;100.00
17855;BME280;9053;53.358;6.382;2022-09-09T11:25:03;100677.56;;;21.35;100.00
17855;BME280;9053;53.358;6.382;2022-09-09T11:27:39;100673.97;;;21.36;100.00
17855;BME280;9053;53.358;6.382;2022-09-09T11:30:18;100670.41;;;21.37;100.00
17855;BME280;9053;53.358;6.382;2022-09-09T11:33:23;100674.88;;;21.39;100.00
17855;BME280;9053;53.358;6.382;2022-09-09T11:36:20;100682.84;;;21.41;100.00
17855;BME280;9053;53.358;6.382;2022-09-09T11:38:58;100675.75;;;21.38;100.00
17855;BME280;9053;53.358;6.382;2022-09-09T11:41:36;100674.84;;;21.38;99.51
17855;BME280;9053;53.358;6.382;2022-09-09T11:44:11;100677.50;;;21.41;99.07
17855;BME280;9053;53.358;6.382;2022-09-09T11:46:46;100673.91;;;21.45;98.65
17855;BME280;9053;53.358;6.382;2022-09-09T11:49:27;100676.50;;;21.50;98.36
17855;BME280;9053;53.358;6.382;2022-09-09T11:51:58;100671.13;;;21.51;98.08
17855;BME280;9053;53.358;6.382;2022-09-09T11:54:29;100671.16;;;21.48;97.59
17855;BME280;9053;53.358;6.382;2022-09-09T11:57:23;100670.34;;;21.45;97.42
17855;BME280;9053;53.358;6.382;2022-09-09T11:59:55;100673.91;;;21.45;96.83
17855;BME280;9053;53.358;6.382;2022-09-09T12:02:27;100672.09;;;21.46;96.70
17855;BME280;9053;53.358;6.382;2022-09-09T12:05:01;100672.09;;;21.44;96.43
17855;BME280;9053;53.358;6.382;2022-09-09T12:07:35;100674.78;;;21.46;96.17
17855;BME280;9053;53.358;6.382;2022-09-09T12:10:22;100658.66;;;21.49;96.10
17855;BME280;9053;53.358;6.382;2022-09-09T12:12:53;100667.63;;;21.48;95.94
17855;BME280;9053;53.358;6.382;2022-09-09T12:15:28;100666.75;;;21.47;95.82
17855;BME280;9053;53.358;6.382;2022-09-09T12:17:58;100666.75;;;21.47;95.62
17855;BME280;9053;53.358;6.382;2022-09-09T12:20:34;100672.09;;;21.44;95.38
17855;BME280;9053;53.358;6.382;2022-09-09T12:23:21;100666.75;;;21.46;95.25
17855;BME280;9053;53.358;6.382;2022-09-09T12:26:07;100663.25;;;21.42;95.36
17855;BME280;9053;53.358;6.382;2022-09-09T12:28:47;100667.72;;;21.40;95.22
17855;BME280;9053;53.358;6.382;2022-09-09T12:31:25;100656.97;;;21.42;95.15
17855;BME280;9053;53.358;6.382;2022-09-09T12:34:06;100664.00;;;21.50;94.99
17855;BME280;9053;53.358;6.382;2022-09-09T12:36:39;100657.69;;;21.57;94.80
17855;BME280;9053;53.358;6.382;2022-09-09T12:39:27;100652.16;;;21.67;94.71
17855;BME280;9053;53.358;6.382;2022-09-09T12:41:58;100654.72;;;21.76;94.53
17855;BME280;9053;53.358;6.382;2022-09-09T12:44:30;100653.66;;;21.85;94.16
17855;BME280;9053;53.358;6.382;2022-09-09T12:47:04;100662.50;;;21.90;94.07
17855;BME280;9053;53.358;6.382;2022-09-09T12:49:37;100663.38;;;21.92;93.72
17855;BME280;9053;53.358;6.382;2022-09-09T12:52:14;100656.22;;;21.92;93.37
17855;BME280;9053;53.358;6.382;2022-09-09T12:54:47;100661.63;;;21.91;93.27
17855;BME280;9053;53.358;6.382;2022-09-09T12:57:18;100663.50;;;21.86;93.00
17855;BME280;9053;53.358;6.382;2022-09-09T12:59:48;100654.59;;;21.82;92.64
17855;BME280;9053;53.358;6.382;2022-09-09T13:02:22;100654.59;;;21.82;92.53
17855;BME280;9053;53.358;6.382;2022-09-09T13:04:52;100658.25;;;21.78;92.28
17855;BME280;9053;53.358;6.382;2022-09-09T13:07:22;100650.16;;;21.81;92.19
17855;BME280;9053;53.358;6.382;2022-09-09T13:09:53;100646.56;;;21.83;91.97
17855;BME280;9053;53.358;6.382;2022-09-09T13:12:23;100642.88;;;21.91;92.05
17855;BME280;9053;53.358;6.382;2022-09-09T13:14:54;100634.75;;;21.97;91.88
17855;BME280;9053;53.358;6.382;2022-09-09T13:17:28;100639.16;;;21.99;91.55
17855;BME280;9053;53.358;6.382;2022-09-09T13:19:58;100640.03;;;22.01;91.54
17855;BME280;9053;53.358;6.382;2022-09-09T13:22:31;100629.22;;;22.08;91.38
17855;BME280;9053;53.358;6.382;2022-09-09T13:25:05;100629.19;;;22.09;91.23
17855;BME280;9053;53.358;6.382;2022-09-09T13:27:39;100631.84;;;22.11;91.31